Poneto, Indiana
Current Conditions -  °F | °C
As of 5:54 AM on Saturday 25 Oct 2014 (Local Time) from KFWA Reporting Station
Overcast Overcast  
Wind Chill: 54°   Ceiling: 4100
Heat Index: 54°   Visibility: 9mi
Dew Point: 51°   Wind: 9mph
Humidity: 90%   Direction: 200°SSW
Pressure: 29.92"   Gusts: NA
Location:  40.66°N, 85.22°W
Report Text: KFWA 250954Z 20008KT 9SM OVC041 12/11 A2992 RMK AO2 RAB00E15 SLP132 P0000 T01220106
Loading
Personal Weather Stations






























Interactive Weather Map New forecast layout! Learn more

10-Day Weather Forecast

Advertisements
Track Severe Weather on mobile